Time;durP1;ratioP1;P1;durP2;ratioP2;P2;SDS_P1;SDS_P2;PMS_P1;PMS_P2;Temp;Humidity;BMP_temperature;BMP_pressure;BME280_temperature;BME280_humidity;BME280_pressure;Samples;Min_cycle;Max_cycle;Signal;HPM_P1;HPM_P2
2022/06/21 00:00:25;;;;;;;4.23;1.63;;;26.30;43.20;;;;;;4962306;28;20498;-84
2022/06/21 00:02:55;;;;;;;1.63;1.43;;;26.30;43.00;;;;;;4962434;28;20474;-85
2022/06/21 00:05:26;;;;;;;2.13;1.20;;;26.30;43.00;;;;;;4962995;28;20478;-84
2022/06/21 00:07:56;;;;;;;1.60;1.50;;;26.40;43.10;;;;;;4962098;28;20429;-84
2022/06/21 00:10:24;;;;;;;2.23;1.40;;;26.30;43.10;;;;;;4962430;28;20445;-86
2022/06/21 00:12:53;;;;;;;4.00;1.37;;;26.30;43.00;;;;;;4962445;28;20469;-83
2022/06/21 00:15:22;;;;;;;1.37;1.23;;;26.30;43.00;;;;;;4956729;28;20557;-84
2022/06/21 00:17:50;;;;;;;3.43;1.57;;;26.20;43.00;;;;;;4961490;28;20479;-83
2022/06/21 00:20:20;;;;;;;2.33;1.60;;;26.20;43.00;;;;;;4963446;28;20447;-85
2022/06/21 00:22:48;;;;;;;2.63;1.63;;;26.30;42.90;;;;;;4963720;28;20445;-85
2022/06/21 00:25:18;;;;;;;1.27;1.17;;;26.20;42.90;;;;;;4962675;28;20455;-85
2022/06/21 00:27:46;;;;;;;1.50;1.40;;;26.20;42.80;;;;;;4963273;28;20444;-84
2022/06/21 00:30:16;;;;;;;2.17;1.30;;;26.20;42.80;;;;;;4963529;28;20484;-84
2022/06/21 00:32:44;;;;;;;1.57;1.47;;;26.10;42.80;;;;;;4959116;29;20530;-84
2022/06/21 00:35:14;;;;;;;1.57;1.33;;;26.10;42.90;;;;;;4960000;28;20430;-82
2022/06/21 00:37:43;;;;;;;4.30;1.90;;;26.10;43.00;;;;;;4959256;28;20449;-82
2022/06/21 00:40:17;;;;;;;1.97;1.40;;;26.10;42.80;;;;;;4959472;28;20447;-82
2022/06/21 00:42:46;;;;;;;5.80;2.10;;;26.10;43.10;;;;;;4956950;28;20453;-82
2022/06/21 00:45:19;;;;;;;2.20;1.33;;;26.00;42.90;;;;;;4959386;28;20449;-82
2022/06/21 00:47:50;;;;;;;2.17;1.47;;;26.00;43.00;;;;;;4959760;29;20459;-82
2022/06/21 00:50:20;;;;;;;1.50;1.40;;;26.00;42.90;;;;;;4957736;29;20513;-82
2022/06/21 00:52:54;;;;;;;2.43;1.97;;;26.00;42.90;;;;;;4958064;28;20441;-81
2022/06/21 00:55:26;;;;;;;4.57;2.30;;;26.00;42.90;;;;;;4957937;29;20449;-82
2022/06/21 00:57:55;;;;;;;2.07;1.70;;;26.00;43.00;;;;;;4956838;28;20462;-82
2022/06/21 01:00:33;;;;;;;5.50;1.80;;;26.00;42.90;;;;;;4956573;28;20542;-82
2022/06/21 01:03:02;;;;;;;2.17;1.57;;;25.90;42.80;;;;;;4957978;29;20524;-82
2022/06/21 01:05:31;;;;;;;2.20;1.57;;;25.90;43.00;;;;;;4958223;29;20526;-82
2022/06/21 01:08:00;;;;;;;1.80;1.70;;;25.90;43.00;;;;;;4958643;28;20489;-82
2022/06/21 01:10:28;;;;;;;3.07;1.90;;;25.90;43.00;;;;;;4957904;28;20464;-82
2022/06/21 01:12:57;;;;;;;3.60;2.00;;;25.90;43.00;;;;;;4959420;29;20554;-82
2022/06/21 01:15:34;;;;;;;4.03;1.40;;;25.80;42.90;;;;;;4956869;28;20434;-82
2022/06/21 01:18:03;;;;;;;1.97;1.57;;;25.80;42.90;;;;;;4955757;29;20563;-82
2022/06/21 01:20:33;;;;;;;2.50;1.70;;;25.80;43.00;;;;;;4958900;29;20451;-82
2022/06/21 01:23:05;;;;;;;2.80;1.60;;;25.80;43.00;;;;;;4958217;29;20443;-83
2022/06/21 01:25:39;;;;;;;4.00;1.80;;;25.70;42.90;;;;;;4958679;29;20514;-82
2022/06/21 01:28:08;;;;;;;3.00;1.93;;;25.80;42.80;;;;;;4956097;29;20408;-82
2022/06/21 01:30:36;;;;;;;1.70;1.60;;;25.70;43.40;;;;;;4956096;28;20512;-82
2022/06/21 01:33:04;;;;;;;2.23;2.03;;;25.70;42.90;;;;;;4964335;28;20465;-81
2022/06/21 01:35:34;;;;;;;2.40;2.20;;;25.70;43.00;;;;;;4958003;28;20508;-82
2022/06/21 01:38:02;;;;;;;2.23;1.73;;;25.70;43.10;;;;;;4964237;28;20520;-82
2022/06/21 01:40:32;;;;;;;2.70;1.50;;;25.70;42.90;;;;;;4968411;28;20511;-81
2022/06/21 01:43:02;;;;;;;2.63;1.60;;;25.70;42.90;;;;;;4957487;28;20482;-82
2022/06/21 01:45:33;;;;;;;2.40;1.60;;;25.70;42.90;;;;;;4957334;28;20462;-81
2022/06/21 01:48:04;;;;;;;1.63;1.50;;;25.70;42.80;;;;;;4961269;28;20533;-81
2022/06/21 01:50:32;;;;;;;2.50;1.50;;;25.60;42.90;;;;;;4967206;28;20418;-82
2022/06/21 01:53:00;;;;;;;3.37;1.97;;;25.60;42.80;;;;;;4957233;28;20471;-82
2022/06/21 01:55:36;;;;;;;3.27;1.80;;;25.60;42.80;;;;;;4962992;28;20417;-82
2022/06/21 01:58:04;;;;;;;3.40;1.80;;;25.60;42.80;;;;;;4962431;29;20504;-82
2022/06/21 02:00:34;;;;;;;5.47;1.70;;;25.60;42.90;;;;;;4963896;28;20454;-83
2022/06/21 02:03:04;;;;;;;1.80;1.70;;;25.60;42.70;;;;;;4956983;28;20462;-81
2022/06/21 02:05:34;;;;;;;2.53;1.83;;;25.60;42.70;;;;;;4968709;28;20437;-82
2022/06/21 02:08:06;;;;;;;2.50;1.40;;;25.70;42.90;;;;;;4942748;29;20446;-81
2022/06/21 02:10:35;;;;;;;1.83;1.70;;;25.60;42.80;;;;;;4942678;29;20465;-82
2022/06/21 02:13:06;;;;;;;2.87;1.60;;;25.60;42.90;;;;;;4941879;29;21171;-80
2022/06/21 02:15:38;;;;;;;4.30;1.80;;;25.50;42.90;;;;;;4943817;29;20447;-82
2022/06/21 02:18:09;;;;;;;1.80;1.70;;;25.50;43.10;;;;;;4943734;28;20466;-82
2022/06/21 02:20:38;;;;;;;2.03;1.57;;;25.50;43.10;;;;;;4948588;28;20437;-82
2022/06/21 02:23:06;;;;;;;4.20;1.50;;;25.40;42.90;;;;;;4974259;28;20444;-82
2022/06/21 02:25:34;;;;;;;2.03;1.60;;;25.40;42.90;;;;;;4981065;28;20477;-82
2022/06/21 02:28:06;;;;;;;4.80;1.70;;;25.40;42.90;;;;;;4980760;28;20421;-83
2022/06/21 02:30:36;;;;;;;3.57;2.00;;;25.50;43.00;;;;;;4980909;28;20471;-82
2022/06/21 02:33:06;;;;;;;1.97;1.57;;;25.40;42.80;;;;;;4979515;28;20979;-82
2022/06/21 02:35:37;;;;;;;2.70;1.80;;;25.40;42.90;;;;;;4976662;28;20428;-81
2022/06/21 02:38:06;;;;;;;2.23;1.50;;;25.40;42.70;;;;;;4965235;28;20558;-82
2022/06/21 02:40:36;;;;;;;3.33;1.50;;;25.40;42.70;;;;;;4960415;28;20429;-81
2022/06/21 02:43:06;;;;;;;1.57;1.47;;;25.40;42.70;;;;;;4959996;28;20502;-82
2022/06/21 02:45:36;;;;;;;1.63;1.53;;;25.40;42.80;;;;;;4960173;28;20464;-82
2022/06/21 02:48:08;;;;;;;3.03;1.70;;;25.40;42.90;;;;;;4959785;28;20513;-82
2022/06/21 02:50:38;;;;;;;1.43;1.33;;;25.30;42.90;;;;;;4960000;29;20454;-82
2022/06/21 02:53:08;;;;;;;2.90;1.40;;;25.40;42.80;;;;;;4956842;28;20479;-81
2022/06/21 02:55:40;;;;;;;2.90;1.53;;;25.30;42.90;;;;;;4967726;28;20538;-82
2022/06/21 02:58:13;;;;;;;1.80;1.70;;;25.30;42.80;;;;;;4960055;29;20521;-81
2022/06/21 03:00:43;;;;;;;1.50;1.40;;;25.30;42.80;;;;;;4959646;28;20428;-82
2022/06/21 03:03:15;;;;;;;1.60;1.50;;;25.30;42.70;;;;;;4955391;28;20515;-82
2022/06/21 03:05:43;;;;;;;3.57;1.93;;;25.30;42.80;;;;;;4960389;29;20795;-82
2022/06/21 03:08:12;;;;;;;1.90;1.67;;;25.20;42.70;;;;;;4959941;28;20534;-82
2022/06/21 03:10:41;;;;;;;2.10;1.47;;;25.30;42.60;;;;;;4961905;28;20459;-83
2022/06/21 03:13:12;;;;;;;1.40;1.30;;;25.30;42.80;;;;;;4966093;28;20468;-82
2022/06/21 03:15:42;;;;;;;2.50;1.63;;;25.30;42.60;;;;;;4959879;29;20457;-81
2022/06/21 03:18:11;;;;;;;2.20;1.60;;;25.30;42.50;;;;;;4959167;28;20481;-82
2022/06/21 03:20:39;;;;;;;1.43;1.43;;;25.40;42.70;;;;;;4960067;28;20974;-81
2022/06/21 03:23:08;;;;;;;1.83;1.40;;;25.40;42.50;;;;;;4959712;28;20445;-81
2022/06/21 03:25:39;;;;;;;1.60;1.50;;;25.30;42.60;;;;;;4960597;28;20448;-82
2022/06/21 03:28:24;;;;;;;1.67;1.57;;;25.30;42.60;;;;;;4958485;28;20476;-80
2022/06/21 03:30:55;;;;;;;3.37;1.67;;;25.30;42.50;;;;;;4968131;28;20445;-81
2022/06/21 03:33:24;;;;;;;1.77;1.37;;;25.30;42.40;;;;;;4959739;28;20441;-81
2022/06/21 03:35:52;;;;;;;1.60;1.50;;;25.20;42.40;;;;;;4960508;28;20454;-82
2022/06/21 03:38:20;;;;;;;6.17;2.00;;;25.20;42.50;;;;;;4960167;28;20509;-81
2022/06/21 03:43:36;;;;;;;2.87;2.10;;;25.20;42.40;;;;;;4960186;29;20515;-82
2022/06/21 03:46:07;;;;;;;1.60;1.50;;;25.20;42.60;;;;;;4958916;29;20517;-81
2022/06/21 03:48:37;;;;;;;1.57;1.40;;;25.20;42.60;;;;;;4968824;28;20448;-82
2022/06/21 03:51:08;;;;;;;1.70;1.50;;;25.20;42.70;;;;;;4981218;28;20472;-82
2022/06/21 03:53:39;;;;;;;1.70;1.60;;;25.30;42.50;;;;;;4980616;28;20446;-83
2022/06/21 03:56:11;;;;;;;4.00;1.80;;;25.30;42.60;;;;;;4981022;28;20512;-82
2022/06/21 03:58:45;;;;;;;1.60;1.50;;;25.20;42.40;;;;;;4980400;28;20561;-82
2022/06/21 04:01:17;;;;;;;2.10;1.50;;;25.20;42.60;;;;;;4980435;28;20420;-82
2022/06/21 04:03:46;;;;;;;2.10;1.53;;;25.20;42.50;;;;;;4976199;28;20478;-81
2022/06/21 04:06:17;;;;;;;2.43;1.70;;;25.20;42.50;;;;;;4966776;28;20432;-81
2022/06/21 04:08:48;;;;;;;2.50;1.73;;;25.30;42.50;;;;;;4959003;29;20508;-82
2022/06/21 04:11:18;;;;;;;1.50;1.40;;;25.10;42.40;;;;;;4958785;28;20534;-82
2022/06/21 04:13:50;;;;;;;1.50;1.40;;;25.20;42.50;;;;;;4958673;28;20853;-81
2022/06/21 04:16:22;;;;;;;1.80;1.43;;;25.20;42.60;;;;;;4959042;28;20964;-80
2022/06/21 04:18:52;;;;;;;1.63;1.20;;;25.20;42.60;;;;;;4958347;28;20487;-81
2022/06/21 04:21:22;;;;;;;1.40;1.30;;;25.20;42.50;;;;;;4954812;28;20474;-82
2022/06/21 04:23:54;;;;;;;1.50;1.40;;;25.10;42.50;;;;;;4966288;28;20447;-82
2022/06/21 04:26:24;;;;;;;1.60;1.50;;;25.10;42.60;;;;;;4959313;29;20448;-82
2022/06/21 04:28:54;;;;;;;1.90;1.40;;;25.20;42.50;;;;;;4958651;29;20470;-82
2022/06/21 04:31:26;;;;;;;2.27;1.50;;;25.20;42.50;;;;;;4959719;28;20471;-82
2022/06/21 04:33:58;;;;;;;2.03;1.60;;;25.20;42.50;;;;;;4952125;29;20432;-82
2022/06/21 04:36:28;;;;;;;1.67;1.57;;;25.20;42.30;;;;;;4958013;29;20497;-82
2022/06/21 04:38:58;;;;;;;1.63;1.53;;;25.20;42.40;;;;;;4973998;28;20453;-81
2022/06/21 04:41:30;;;;;;;2.03;1.40;;;25.20;42.50;;;;;;4959600;28;20469;-81
2022/06/21 04:44:00;;;;;;;2.30;1.60;;;25.20;42.40;;;;;;4959903;29;20451;-82
2022/06/21 04:46:35;;;;;;;1.70;1.60;;;25.20;42.40;;;;;;4960354;28;20482;-82
2022/06/21 04:49:07;;;;;;;3.07;1.30;;;25.20;42.50;;;;;;4959067;29;20494;-81
2022/06/21 04:51:38;;;;;;;2.33;1.50;;;25.20;42.30;;;;;;4959638;29;20442;-81
2022/06/21 04:54:07;;;;;;;2.30;1.73;;;25.20;42.50;;;;;;4958422;28;20467;-81
2022/06/21 04:56:42;;;;;;;1.30;1.20;;;25.30;42.40;;;;;;4967652;28;20513;-80
2022/06/21 04:59:12;;;;;;;2.40;1.50;;;25.30;42.30;;;;;;4960096;29;20474;-82
2022/06/21 05:01:41;;;;;;;1.63;1.40;;;25.30;42.40;;;;;;4958515;28;20546;-84
2022/06/21 05:04:13;;;;;;;1.70;1.60;;;25.30;42.50;;;;;;4958817;28;20455;-82
2022/06/21 05:06:41;;;;;;;5.13;1.70;;;25.30;42.40;;;;;;4959888;29;20483;-82
2022/06/21 05:09:10;;;;;;;1.93;1.47;;;25.30;42.50;;;;;;4959968;28;20449;-82
2022/06/21 05:11:38;;;;;;;2.43;1.70;;;25.30;42.40;;;;;;4966976;28;20444;-81
2022/06/21 05:14:10;;;;;;;2.30;1.50;;;25.20;42.40;;;;;;4976714;28;20454;-79
2022/06/21 05:16:40;;;;;;;1.37;1.27;;;25.30;42.40;;;;;;4984783;28;20425;-81
2022/06/21 05:19:14;;;;;;;1.47;1.30;;;25.30;42.40;;;;;;4981203;28;20533;-82
2022/06/21 05:21:44;;;;;;;1.33;1.20;;;25.30;42.40;;;;;;4980406;28;20468;-82
2022/06/21 05:24:12;;;;;;;1.30;1.20;;;25.30;42.30;;;;;;4979623;28;20438;-82
2022/06/21 05:26:42;;;;;;;2.00;1.20;;;25.40;42.50;;;;;;4970724;28;20433;-82
2022/06/21 05:29:12;;;;;;;3.40;1.50;;;25.40;42.40;;;;;;4968848;28;20428;-82
2022/06/21 05:31:44;;;;;;;1.97;1.33;;;25.40;42.30;;;;;;4962828;29;20489;-82
2022/06/21 05:34:15;;;;;;;1.33;1.27;;;25.40;42.50;;;;;;4962732;29;20431;-82
2022/06/21 05:36:54;;;;;;;2.30;1.30;;;25.40;42.20;;;;;;4962643;29;20450;-81
2022/06/21 05:39:24;;;;;;;1.43;1.33;;;25.40;42.40;;;;;;4968974;28;20515;-82
2022/06/21 05:41:54;;;;;;;1.30;1.20;;;25.40;42.30;;;;;;4966568;28;20472;-80
2022/06/21 05:44:25;;;;;;;1.40;1.30;;;25.40;42.40;;;;;;4965490;28;20449;-82
2022/06/21 05:46:57;;;;;;;2.83;1.53;;;25.40;42.30;;;;;;4963825;29;20413;-82
2022/06/21 05:49:27;;;;;;;1.23;1.20;;;25.40;42.20;;;;;;4962369;29;20496;-82
2022/06/21 05:51:56;;;;;;;1.40;1.27;;;25.40;42.60;;;;;;4962435;28;20470;-82
2022/06/21 05:54:26;;;;;;;1.67;1.23;;;25.40;42.50;;;;;;4961627;28;20444;-82
2022/06/21 05:56:54;;;;;;;1.63;1.40;;;25.40;42.40;;;;;;4962213;28;20439;-82
2022/06/21 05:59:23;;;;;;;2.60;1.50;;;25.40;42.50;;;;;;4964102;28;20492;-82
2022/06/21 06:01:55;;;;;;;1.30;1.20;;;25.40;42.40;;;;;;4962323;28;20441;-81
2022/06/21 06:04:24;;;;;;;1.27;1.20;;;25.40;42.50;;;;;;4961453;29;20438;-82
2022/06/21 06:06:52;;;;;;;2.30;1.43;;;25.40;42.50;;;;;;4962711;28;20429;-81
2022/06/21 06:09:22;;;;;;;1.57;1.47;;;25.40;42.40;;;;;;4963202;28;20541;-81
2022/06/21 06:12:01;;;;;;;1.57;1.33;;;25.40;42.50;;;;;;4962573;28;21008;-82
2022/06/21 06:14:37;;;;;;;1.63;1.53;;;25.40;42.50;;;;;;4966600;28;20462;-82
2022/06/21 06:17:11;;;;;;;1.40;1.30;;;25.40;42.60;;;;;;4969418;28;20855;-82
2022/06/21 06:19:42;;;;;;;1.63;1.50;;;25.40;42.70;;;;;;4982212;28;20424;-82
2022/06/21 06:22:21;;;;;;;3.90;1.47;;;25.50;42.60;;;;;;4982302;28;20467;-82
2022/06/21 06:24:53;;;;;;;2.37;1.47;;;25.50;42.60;;;;;;4981783;28;20453;-81
2022/06/21 06:27:27;;;;;;;1.13;1.03;;;25.50;42.50;;;;;;4981623;28;20515;-82
2022/06/21 06:29:55;;;;;;;1.97;1.23;;;25.50;42.50;;;;;;4967339;28;20483;-84
2022/06/21 06:32:27;;;;;;;1.27;1.20;;;25.50;42.50;;;;;;4979782;28;20470;-84
2022/06/21 06:34:56;;;;;;;1.63;1.17;;;25.60;42.40;;;;;;4980443;28;20434;-82
2022/06/21 06:37:30;;;;;;;1.63;1.37;;;25.60;42.40;;;;;;4980186;28;20454;-81
2022/06/21 06:39:58;;;;;;;1.60;1.50;;;25.70;42.30;;;;;;4980004;28;20491;-82
2022/06/21 06:42:28;;;;;;;2.20;1.43;;;25.70;42.30;;;;;;4979144;28;20477;-81
2022/06/21 06:44:58;;;;;;;1.83;1.60;;;25.70;42.30;;;;;;4978421;28;20802;-81
2022/06/21 06:47:30;;;;;;;3.03;1.33;;;25.70;42.20;;;;;;4971728;28;20837;-82
2022/06/21 06:50:00;;;;;;;1.43;1.30;;;25.70;42.30;;;;;;4959279;28;20482;-82
2022/06/21 06:52:29;;;;;;;2.17;1.43;;;25.80;42.40;;;;;;4959139;28;20499;-81
2022/06/21 06:55:01;;;;;;;2.73;1.57;;;25.80;42.30;;;;;;4959106;28;20452;-81
2022/06/21 06:57:30;;;;;;;1.40;1.30;;;25.90;42.10;;;;;;4959204;29;20448;-82
2022/06/21 06:59:59;;;;;;;1.53;1.03;;;25.90;42.10;;;;;;4958692;28;20481;-82
2022/06/21 07:02:32;;;;;;;2.13;1.33;;;25.90;42.10;;;;;;4959838;28;20475;-84
2022/06/21 07:05:03;;;;;;;1.33;1.20;;;26.00;42.20;;;;;;4959597;28;20429;-82
2022/06/21 07:07:37;;;;;;;1.57;1.20;;;26.00;42.00;;;;;;4959490;28;20462;-82
2022/06/21 07:10:06;;;;;;;1.50;1.40;;;26.00;42.00;;;;;;4959186;28;20450;-81
2022/06/21 07:12:34;;;;;;;1.30;1.20;;;26.00;41.90;;;;;;4959014;28;20506;-81
2022/06/21 07:15:03;;;;;;;3.30;1.20;;;26.00;41.80;;;;;;4959194;28;20467;-82
2022/06/21 07:17:40;;;;;;;2.00;1.60;;;26.10;41.90;;;;;;4949992;28;20509;-84
2022/06/21 07:20:19;;;;;;;2.30;1.30;;;26.10;41.90;;;;;;4968122;28;20412;-83
2022/06/21 07:22:47;;;;;;;1.73;1.37;;;26.10;41.80;;;;;;4979871;28;20462;-82
2022/06/21 07:25:21;;;;;;;1.57;1.30;;;26.20;41.70;;;;;;4980108;28;20847;-82
2022/06/21 07:27:51;;;;;;;1.87;1.33;;;26.20;41.60;;;;;;4980502;28;20454;-83
2022/06/21 07:30:21;;;;;;;1.30;1.20;;;26.30;41.70;;;;;;4979869;28;20424;-82
2022/06/21 07:32:53;;;;;;;1.57;1.40;;;26.30;41.50;;;;;;4970738;28;20542;-82
2022/06/21 07:35:25;;;;;;;2.50;1.40;;;26.30;41.60;;;;;;4967448;28;20474;-82
2022/06/21 07:37:55;;;;;;;1.73;1.33;;;26.30;41.40;;;;;;4960793;29;20546;-81
2022/06/21 07:40:25;;;;;;;1.87;1.40;;;26.30;41.40;;;;;;4960307;28;20993;-83
2022/06/21 07:42:57;;;;;;;1.77;1.30;;;26.40;41.50;;;;;;4960733;29;20469;-82
2022/06/21 07:45:29;;;;;;;1.93;1.30;;;26.40;41.50;;;;;;4961234;29;20447;-82
2022/06/21 07:48:00;;;;;;;1.30;1.20;;;26.40;41.40;;;;;;4959489;28;20531;-81
2022/06/21 07:50:32;;;;;;;1.80;1.30;;;26.40;41.40;;;;;;4968728;28;20429;-82
2022/06/21 07:53:09;;;;;;;1.53;1.27;;;26.50;41.40;;;;;;4940481;29;20471;-82
2022/06/21 07:55:38;;;;;;;1.40;1.30;;;26.50;41.20;;;;;;4940582;29;20422;-82
2022/06/21 07:58:09;;;;;;;1.43;1.33;;;26.50;41.20;;;;;;4941052;29;20452;-82
2022/06/21 08:09:03;;;;;;;1.93;1.70;;;26.50;41.30;;;;;;4965089;28;20508;-81
2022/06/21 08:11:34;;;;;;;4.03;1.27;;;26.50;41.40;;;;;;4980321;28;20549;-82
2022/06/21 08:14:02;;;;;;;3.20;1.30;;;26.60;41.30;;;;;;4980453;28;20979;-81
2022/06/21 08:16:34;;;;;;;1.73;1.63;;;26.70;41.20;;;;;;4979791;28;20438;-82
2022/06/21 08:19:12;;;;;;;1.40;1.30;;;26.80;41.00;;;;;;4979845;28;20444;-82
2022/06/21 08:21:43;;;;;;;2.20;1.13;;;26.90;40.90;;;;;;4975403;28;20481;-82
2022/06/21 08:24:13;;;;;;;1.50;1.40;;;27.00;40.80;;;;;;4967045;28;20443;-82
2022/06/21 08:26:43;;;;;;;1.40;1.30;;;27.00;40.70;;;;;;4961299;28;20478;-82
2022/06/21 08:29:14;;;;;;;1.40;1.30;;;27.10;40.60;;;;;;4960446;28;20521;-81
2022/06/21 08:31:44;;;;;;;3.33;1.53;;;27.10;40.40;;;;;;4954101;29;20477;-81
2022/06/21 08:34:19;;;;;;;1.37;1.27;;;27.10;40.40;;;;;;4955646;28;20457;-82
2022/06/21 08:36:50;;;;;;;2.40;1.27;;;27.20;40.30;;;;;;4972565;28;20446;-82
2022/06/21 08:39:21;;;;;;;1.30;1.20;;;27.30;40.30;;;;;;4960284;28;20896;-82
2022/06/21 08:42:17;;;;;;;1.93;1.60;;;27.40;40.40;;;;;;4960730;28;20475;-81
2022/06/21 08:48:25;;;;;;;1.60;1.23;;;27.60;40.40;;;;;;4954340;29;20544;-81
2022/06/21 08:51:05;;;;;;;1.40;1.30;;;27.70;40.20;;;;;;4937457;29;20516;-82
2022/06/21 08:53:39;;;;;;;1.63;1.20;;;27.70;40.00;;;;;;4954453;29;20511;-81
2022/06/21 08:56:11;;;;;;;2.10;1.20;;;27.80;39.90;;;;;;4954426;29;20451;-81
2022/06/21 08:58:45;;;;;;;2.70;1.47;;;27.90;39.90;;;;;;4956839;28;20454;-81
2022/06/21 09:01:17;;;;;;;2.30;1.30;;;27.90;39.80;;;;;;4967631;28;20446;-81
2022/06/21 09:04:03;;;;;;;1.93;1.70;;;28.10;39.90;;;;;;4973905;28;20433;-83
2022/06/21 09:06:41;;;;;;;1.23;1.23;;;28.10;39.60;;;;;;4973509;28;20431;-83
2022/06/21 09:09:17;;;;;;;3.10;1.23;;;28.20;39.50;;;;;;4973712;28;20957;-82
2022/06/21 09:11:49;;;;;;;1.93;1.30;;;28.20;39.20;;;;;;4965012;28;20537;-79
2022/06/21 09:14:43;;;;;;;1.60;1.50;;;28.20;39.40;;;;;;4965848;28;20416;-80
2022/06/21 09:17:15;;;;;;;1.80;1.60;;;28.30;39.50;;;;;;4973622;28;20505;-80
2022/06/21 09:19:51;;;;;;;2.30;1.43;;;28.30;39.40;;;;;;4973897;28;20424;-80
2022/06/21 09:22:25;;;;;;;1.67;1.57;;;28.30;39.20;;;;;;4974199;28;20577;-80
2022/06/21 09:24:58;;;;;;;1.33;1.27;;;28.30;39.20;;;;;;4975812;28;20445;-79
2022/06/21 09:27:27;;;;;;;1.57;1.47;;;28.30;39.30;;;;;;4975088;28;20506;-79
2022/06/21 09:30:02;;;;;;;1.47;1.37;;;28.30;39.50;;;;;;4963964;28;20539;-82
2022/06/21 09:32:35;;;;;;;3.53;1.83;;;28.30;39.50;;;;;;4970397;28;20540;-79
2022/06/21 09:35:16;;;;;;;2.30;1.40;;;28.50;39.80;;;;;;4975816;28;20449;-81
2022/06/21 09:37:56;;;;;;;2.47;1.53;;;28.50;39.80;;;;;;4978924;28;20525;-81
2022/06/21 09:40:27;;;;;;;7.03;1.40;;;28.60;39.80;;;;;;4977122;28;20952;-80
2022/06/21 09:43:16;;;;;;;2.50;1.70;;;28.60;39.80;;;;;;4977597;28;20478;-80
2022/06/21 09:45:49;;;;;;;2.57;1.60;;;28.50;40.20;;;;;;4973945;28;20459;-81
2022/06/21 09:48:20;;;;;;;1.50;1.30;;;28.50;40.20;;;;;;4971071;28;20533;-80
2022/06/21 09:50:53;;;;;;;2.20;1.60;;;28.40;40.50;;;;;;4979086;28;20492;-80
2022/06/21 09:53:28;;;;;;;4.33;2.00;;;28.50;40.70;;;;;;4978955;28;20457;-80
2022/06/21 09:56:01;;;;;;;3.23;2.00;;;28.50;40.80;;;;;;4974898;28;20532;-80
2022/06/21 09:58:30;;;;;;;3.10;1.70;;;28.60;41.10;;;;;;4975798;28;20954;-82
2022/06/21 10:01:01;;;;;;;6.73;1.80;;;28.60;41.00;;;;;;4975390;28;20533;-80
2022/06/21 10:03:37;;;;;;;2.50;1.67;;;28.60;41.40;;;;;;4972434;28;20577;-80
2022/06/21 10:06:09;;;;;;;3.23;2.10;;;28.80;41.30;;;;;;4965148;28;20416;-80
2022/06/21 10:08:56;;;;;;;3.80;1.87;;;28.80;41.20;;;;;;4961351;28;20518;-80
2022/06/21 10:11:29;;;;;;;4.97;1.50;;;29.00;40.90;;;;;;4962223;28;20447;-82
2022/06/21 10:14:20;;;;;;;3.10;2.00;;;29.00;40.80;;;;;;4962986;29;20447;-80
2022/06/21 10:17:16;;;;;;;11.37;2.30;;;29.10;40.30;;;;;;4962880;28;20522;-80
2022/06/21 10:19:52;;;;;;;2.23;2.10;;;29.10;40.30;;;;;;4970024;28;20521;-80
2022/06/21 10:22:32;;;;;;;5.50;1.97;;;29.20;40.20;;;;;;4976844;28;20477;-79
2022/06/21 10:25:36;;;;;;;4.40;1.97;;;29.30;40.10;;;;;;4983494;28;20517;-80
2022/06/21 10:28:26;;;;;;;5.53;2.00;;;29.30;39.90;;;;;;4981697;28;20512;-80
2022/06/21 10:31:02;;;;;;;2.60;1.70;;;29.30;39.90;;;;;;4974582;28;20477;-80
2022/06/21 10:33:59;;;;;;;4.10;2.40;;;29.40;39.90;;;;;;4981930;28;20473;-80
2022/06/21 10:36:38;;;;;;;10.90;2.30;;;29.40;39.90;;;;;;4920218;28;20458;-80
2022/06/21 10:39:18;;;;;;;4.50;1.77;;;29.20;39.80;;;;;;4977394;28;20449;-80
2022/06/21 10:44:53;;;;;;;1.83;1.57;;;29.40;40.00;;;;;;4962239;29;20503;-79
2022/06/21 10:47:25;;;;;;;1.90;1.80;;;29.40;39.80;;;;;;4963063;29;20443;-80
2022/06/21 10:50:03;;;;;;;2.30;1.80;;;29.50;39.70;;;;;;4954580;29;20447;-82
2022/06/21 10:53:13;;;;;;;2.50;2.30;;;29.60;39.50;;;;;;4961767;29;20993;-80
2022/06/21 10:55:50;;;;;;;3.37;2.20;;;29.60;39.40;;;;;;4971455;28;20527;-80
2022/06/21 10:58:40;;;;;;;7.10;2.20;;;29.70;39.40;;;;;;4981769;28;20473;-80
2022/06/21 11:01:17;;;;;;;4.50;1.70;;;29.70;39.20;;;;;;4981440;28;20438;-79
2022/06/21 11:03:58;;;;;;;6.77;1.90;;;29.70;39.20;;;;;;4980889;28;20474;-80
2022/06/21 11:06:31;;;;;;;2.50;1.70;;;29.80;39.00;;;;;;4981051;28;20450;-81
2022/06/21 11:09:04;;;;;;;2.70;1.60;;;29.80;39.00;;;;;;4979084;28;20529;-81
2022/06/21 11:11:38;;;;;;;1.63;1.53;;;29.80;38.80;;;;;;4973299;28;20553;-78
2022/06/21 11:14:12;;;;;;;1.73;1.63;;;29.80;38.80;;;;;;4980890;28;20446;-79
2022/06/21 11:16:43;;;;;;;4.60;1.90;;;29.90;38.70;;;;;;4980935;28;20521;-81
2022/06/21 11:19:15;;;;;;;3.83;1.70;;;29.90;38.80;;;;;;4981147;28;20408;-82
2022/06/21 11:21:50;;;;;;;2.00;1.63;;;29.90;38.60;;;;;;4979809;28;20561;-80
2022/06/21 11:24:24;;;;;;;1.63;1.50;;;29.90;38.50;;;;;;4981747;28;20512;-80
2022/06/21 11:26:57;;;;;;;1.30;1.30;;;30.00;38.50;;;;;;4975747;28;20458;-80
2022/06/21 11:29:39;;;;;;;2.90;1.23;;;30.00;38.50;;;;;;4977671;28;20442;-81
2022/06/21 11:32:14;;;;;;;7.10;1.77;;;30.10;38.40;;;;;;4983100;28;20498;-80
2022/06/21 11:34:45;;;;;;;3.67;1.90;;;30.10;38.40;;;;;;4982441;28;20525;-80
2022/06/21 11:37:22;;;;;;;4.33;1.70;;;30.00;38.40;;;;;;4981678;28;20485;-80
2022/06/21 11:39:53;;;;;;;2.17;1.93;;;30.00;38.40;;;;;;4981448;28;20521;-80
2022/06/21 11:42:24;;;;;;;2.43;1.80;;;30.00;38.40;;;;;;4975970;28;20478;-80
2022/06/21 11:45:22;;;;;;;6.67;1.80;;;30.10;38.40;;;;;;4973283;28;20442;-80
2022/06/21 11:48:41;;;;;;;4.10;1.77;;;30.10;38.10;;;;;;4980970;28;20481;-80
2022/06/21 11:51:21;;;;;;;2.10;1.47;;;30.20;38.10;;;;;;4934627;29;20448;-80
2022/06/21 11:53:55;;;;;;;2.23;1.80;;;30.20;38.10;;;;;;4980905;28;20517;-80
2022/06/21 11:56:26;;;;;;;5.07;1.83;;;30.10;38.00;;;;;;4981512;28;20513;-80
2022/06/21 11:58:56;;;;;;;1.80;1.50;;;30.10;38.30;;;;;;4977889;28;20486;-80
2022/06/21 12:01:28;;;;;;;2.27;1.87;;;30.10;38.10;;;;;;4969704;28;20467;-81
2022/06/21 12:04:15;;;;;;;2.23;1.50;;;30.10;38.30;;;;;;4943131;29;21065;-81
2022/06/21 12:06:46;;;;;;;2.07;1.47;;;29.90;38.40;;;;;;4942010;29;20458;-81
2022/06/21 12:09:18;;;;;;;3.40;1.70;;;30.00;38.50;;;;;;4942766;29;20456;-81
2022/06/21 12:11:55;;;;;;;2.00;1.53;;;29.90;38.30;;;;;;4942092;29;20555;-80
2022/06/21 12:14:28;;;;;;;1.87;1.77;;;29.80;38.50;;;;;;4942299;29;20498;-80
2022/06/21 12:17:03;;;;;;;2.90;1.50;;;29.80;38.70;;;;;;4972869;28;20473;-80
2022/06/21 12:19:32;;;;;;;1.60;1.50;;;29.90;38.60;;;;;;4981146;28;20445;-80
2022/06/21 12:22:05;;;;;;;1.63;1.53;;;30.00;38.60;;;;;;4980428;28;20549;-80
2022/06/21 12:24:33;;;;;;;4.00;1.70;;;30.10;38.30;;;;;;4980428;28;20568;-79
2022/06/21 12:27:02;;;;;;;6.67;1.93;;;30.10;38.20;;;;;;4979998;28;20450;-80
2022/06/21 12:29:29;;;;;;;2.50;1.33;;;30.10;38.30;;;;;;4979442;28;20447;-80
2022/06/21 12:32:00;;;;;;;1.67;1.57;;;30.20;38.20;;;;;;4976093;28;20539;-80
2022/06/21 12:34:30;;;;;;;3.83;1.70;;;30.20;38.10;;;;;;4967968;28;20446;-80
2022/06/21 12:37:00;;;;;;;6.77;1.47;;;30.20;38.10;;;;;;4941044;29;20472;-80
2022/06/21 12:39:32;;;;;;;2.60;1.37;;;30.30;38.10;;;;;;4942671;29;20448;-79
2022/06/21 12:42:06;;;;;;;2.10;1.50;;;30.30;38.00;;;;;;4941820;29;20483;-81
2022/06/21 12:44:44;;;;;;;2.13;1.57;;;30.30;38.00;;;;;;4942622;29;20476;-81
2022/06/21 12:47:21;;;;;;;2.77;1.53;;;30.30;37.90;;;;;;4943370;29;20471;-81
2022/06/21 12:50:31;;;;;;;4.23;1.70;;;30.40;37.90;;;;;;4964767;28;20453;-81
2022/06/21 12:53:10;;;;;;;2.10;1.70;;;30.50;37.80;;;;;;4959986;28;20462;-80
2022/06/21 12:55:42;;;;;;;2.00;1.60;;;30.50;37.90;;;;;;4961288;29;20512;-80
2022/06/21 12:58:16;;;;;;;1.53;1.43;;;30.40;37.90;;;;;;4960893;29;20515;-80
2022/06/21 13:00:47;;;;;;;1.80;1.70;;;30.40;37.80;;;;;;4960118;29;20538;-80
2022/06/21 13:03:45;;;;;;;2.43;1.60;;;30.40;37.80;;;;;;4959824;28;20511;-80
2022/06/21 13:06:32;;;;;;;3.27;1.40;;;30.50;37.80;;;;;;4958426;28;20461;-82
2022/06/21 13:09:23;;;;;;;1.67;1.57;;;30.40;37.80;;;;;;4941260;29;20446;-80
2022/06/21 13:12:01;;;;;;;1.40;1.30;;;30.40;37.80;;;;;;4936851;29;20460;-79
2022/06/21 13:14:41;;;;;;;1.90;1.30;;;30.40;37.90;;;;;;4940472;29;20431;-80
2022/06/21 13:17:17;;;;;;;2.00;1.60;;;30.50;38.60;;;;;;4940771;29;20524;-80
2022/06/21 13:19:52;;;;;;;1.70;1.60;;;30.50;37.90;;;;;;4940558;29;20438;-79
2022/06/21 13:22:36;;;;;;;1.47;1.40;;;30.50;37.80;;;;;;4962469;28;20481;-80
2022/06/21 13:25:14;;;;;;;1.43;1.33;;;30.50;37.80;;;;;;4939599;29;20488;-79
2022/06/21 13:27:49;;;;;;;1.80;1.40;;;30.50;37.80;;;;;;4939851;29;20542;-79
2022/06/21 13:30:30;;;;;;;1.70;1.60;;;30.50;37.80;;;;;;4940037;29;20515;-80
2022/06/21 13:33:06;;;;;;;1.40;1.30;;;30.50;37.70;;;;;;4940354;29;20519;-80
2022/06/21 13:35:46;;;;;;;1.13;1.13;;;30.50;37.70;;;;;;4940298;29;20526;-80